Time;durP1;ratioP1;P1;durP2;ratioP2;P2;SDS_P1;SDS_P2;PMS_P1;PMS_P2;Temp;Humidity;BMP_temperature;BMP_pressure;BME280_temperature;BME280_humidity;BME280_pressure;Samples;Min_cycle;Max_cycle;Signal;HPM_P1;HPM_P2
2021/09/23 00:00:13;;;;;;;;;19.00;18.67;;;;;13.11;73.08;101912.25;5063064;28;45361;-79
2021/09/23 00:05:21;;;;;;;;;21.00;21.00;;;;;13.10;72.66;101914.06;5062651;28;46184;-79
2021/09/23 00:07:49;;;;;;;;;22.67;22.00;;;;;13.16;72.59;101917.91;5062733;28;45273;-79
2021/09/23 00:10:20;;;;;;;;;21.00;20.00;;;;;13.15;72.92;101915.41;5062938;28;45388;-79
2021/09/23 00:12:47;;;;;;;;;23.50;22.00;;;;;13.10;72.59;101911.41;5062260;28;45260;-79
2021/09/23 00:15:15;;;;;;;;;20.33;20.33;;;;;13.00;72.56;101898.16;5062608;28;45378;-78
2021/09/23 00:17:47;;;;;;;;;19.33;18.33;;;;;12.99;72.72;101903.69;5062500;28;45323;-78
2021/09/23 00:20:18;;;;;;;;;17.00;17.00;;;;;12.93;72.69;101907.81;5062928;28;45331;-78
2021/09/23 00:22:44;;;;;;;;;23.00;22.33;;;;;12.94;72.93;101908.66;5062427;28;45238;-78
2021/09/23 00:25:11;;;;;;;;;21.00;20.00;;;;;12.93;73.21;101909.69;5061240;28;46540;-78
2021/09/23 00:27:36;;;;;;;;;19.67;19.67;;;;;12.90;72.80;101910.00;5062341;28;45398;-78
2021/09/23 00:30:04;;;;;;;;;23.67;23.67;;;;;12.86;73.01;101902.31;5068683;28;45280;-78
2021/09/23 00:32:30;;;;;;;;;24.33;23.00;;;;;12.79;73.00;101889.78;5082665;28;45524;-79
2021/09/23 00:34:55;;;;;;;;;24.67;23.67;;;;;12.78;72.95;101901.44;5082663;28;45224;-79
2021/09/23 00:37:21;;;;;;;;;21.67;21.00;;;;;12.75;73.27;101900.75;5082543;28;45279;-78
2021/09/23 00:39:47;;;;;;;;;22.67;21.67;;;;;12.77;73.21;101894.41;5082909;28;45437;-79
2021/09/23 00:42:12;;;;;;;;;20.00;20.00;;;;;12.77;73.46;101897.09;5071501;28;45378;-78
2021/09/23 00:44:38;;;;;;;;;18.67;18.00;;;;;12.70;73.09;101897.75;5062278;28;45866;-79
2021/09/23 00:47:04;;;;;;;;;17.33;17.00;;;;;12.66;73.32;101890.22;5062049;28;45279;-79
2021/09/23 00:49:30;;;;;;;;;19.33;17.00;;;;;12.68;73.26;101891.72;5062390;28;45232;-78
2021/09/23 00:51:55;;;;;;;;;21.33;21.33;;;;;12.67;73.22;101897.22;5062073;28;45398;-78
2021/09/23 00:54:21;;;;;;;;;20.33;19.33;;;;;12.65;73.40;101888.53;5062194;28;46100;-78
2021/09/23 00:56:47;;;;;;;;;22.33;21.00;;;;;12.60;73.10;101881.03;5062279;28;45354;-78
2021/09/23 00:59:12;;;;;;;;;21.00;19.00;;;;;12.55;73.33;101873.50;5062396;28;45481;-78
2021/09/23 01:01:45;;;;;;;;;21.67;21.00;;;;;12.58;73.30;101870.53;5061584;28;45286;-78
2021/09/23 01:04:11;;;;;;;;;16.33;16.33;;;;;12.57;73.29;101876.03;5062105;28;45497;-79
2021/09/23 01:06:36;;;;;;;;;19.67;18.67;;;;;12.55;73.25;101878.00;5060909;28;45446;-78
2021/09/23 01:09:02;;;;;;;;;20.33;19.67;;;;;12.55;73.29;101862.00;5061616;28;45294;-79
2021/09/23 01:11:29;;;;;;;;;21.00;19.67;;;;;12.56;73.06;101863.66;5061891;28;45548;-78
2021/09/23 01:13:55;;;;;;;;;19.67;19.33;;;;;12.50;73.57;101851.81;5061294;28;46165;-79
2021/09/23 01:16:21;;;;;;;;;20.67;18.00;;;;;12.48;73.46;101846.63;5061694;28;45281;-78
2021/09/23 01:18:47;;;;;;;;;21.33;18.33;;;;;12.48;73.26;101843.16;5062026;28;45271;-78
2021/09/23 01:21:13;;;;;;;;;21.67;21.00;;;;;12.49;73.85;101840.31;5061463;28;45539;-79
2021/09/23 01:23:41;;;;;;;;;23.33;23.33;;;;;12.51;73.66;101834.81;5061793;28;45284;-78
2021/09/23 01:26:08;;;;;;;;;22.33;22.33;;;;;12.49;73.45;101818.97;5061718;28;45354;-79
2021/09/23 01:28:34;;;;;;;;;18.00;18.00;;;;;12.50;73.52;101814.47;5061589;28;45252;-78
2021/09/23 01:31:01;;;;;;;;;21.33;21.33;;;;;12.48;73.65;101814.63;5075703;28;45464;-79
2021/09/23 01:33:27;;;;;;;;;19.00;19.00;;;;;12.44;73.56;101807.97;5081731;28;46132;-78
2021/09/23 01:35:53;;;;;;;;;20.33;19.33;;;;;12.44;73.56;101804.44;5081615;28;45289;-79
2021/09/23 01:38:18;;;;;;;;;20.00;20.00;;;;;12.43;73.49;101808.13;5081884;28;45223;-79
2021/09/23 01:40:44;;;;;;;;;21.33;19.33;;;;;12.41;73.73;101810.09;5081837;27;45242;-78
2021/09/23 01:43:09;;;;;;;;;20.67;19.33;;;;;12.42;73.59;101806.47;5072931;28;45206;-79
2021/09/23 01:45:35;;;;;;;;;22.33;22.33;;;;;12.40;73.62;101805.78;5061354;28;45361;-78
2021/09/23 01:48:01;;;;;;;;;23.00;21.00;;;;;12.31;73.50;101794.25;5061372;28;45513;-78
2021/09/23 01:50:26;;;;;;;;;25.33;25.00;;;;;12.28;73.70;101798.06;5061308;28;45388;-79
2021/09/23 01:52:52;;;;;;;;;22.00;18.33;;;;;12.27;73.76;101795.56;5061244;28;45793;-78
2021/09/23 01:55:17;;;;;;;;;18.33;18.33;;;;;12.27;73.66;101800.91;5061354;28;45398;-78
2021/09/23 01:57:43;;;;;;;;;17.00;16.67;;;;;12.27;73.90;101787.56;5061427;28;45490;-78
2021/09/23 02:00:09;;;;;;;;;20.67;19.33;;;;;12.22;73.75;101786.19;5061336;28;45376;-79
2021/09/23 02:02:34;;;;;;;;;20.67;20.00;;;;;12.20;73.99;101784.69;5060400;28;45937;-78
2021/09/23 02:05:00;;;;;;;;;18.33;17.67;;;;;12.20;73.81;101787.34;5061410;28;45759;-78
2021/09/23 02:07:26;;;;;;;;;23.67;19.67;;;;;12.17;73.59;101793.84;5061225;28;45326;-79
2021/09/23 02:09:51;;;;;;;;;21.00;20.67;;;;;12.14;73.87;101791.50;5061065;28;45264;-78
2021/09/23 02:12:20;;;;;;;;;21.00;19.67;;;;;12.08;73.74;101787.66;5061196;28;45221;-79
2021/09/23 02:14:45;;;;;;;;;18.33;18.33;;;;;12.09;73.93;101789.31;5060937;28;45381;-79
2021/09/23 02:17:11;;;;;;;;;20.33;19.00;;;;;12.06;73.96;101778.94;5060887;28;45314;-78
2021/09/23 02:19:37;;;;;;;;;20.00;16.00;;;;;12.05;73.80;101776.44;5060380;28;45248;-79
2021/09/23 02:22:02;;;;;;;;;23.00;20.67;;;;;12.05;73.99;101768.44;5060582;28;46002;-79
2021/09/23 02:24:28;;;;;;;;;21.67;19.33;;;;;12.07;73.91;101772.66;5060889;28;45330;-79
2021/09/23 02:26:54;;;;;;;;;21.00;18.67;;;;;12.03;73.95;101767.78;5060653;28;45240;-79
2021/09/23 02:29:20;;;;;;;;;18.33;17.67;;;;;12.00;73.84;101766.25;5061029;28;45422;-79
2021/09/23 02:31:46;;;;;;;;;18.33;17.33;;;;;12.00;73.80;101772.41;5080695;28;45298;-79
2021/09/23 02:34:12;;;;;;;;;19.33;18.33;;;;;11.97;73.69;101761.22;5080965;27;45326;-79
2021/09/23 02:36:37;;;;;;;;;19.33;19.33;;;;;11.95;73.91;101761.41;5080888;28;45286;-79
2021/09/23 02:39:04;;;;;;;;;18.00;18.00;;;;;11.92;73.45;101767.06;5080779;28;45236;-79
2021/09/23 02:41:31;;;;;;;;;17.00;16.67;;;;;11.83;73.89;101746.69;5076067;27;46685;-79
2021/09/23 02:43:57;;;;;;;;;19.67;19.67;;;;;11.79;74.13;101756.00;5060231;28;45323;-79
2021/09/23 02:46:23;;;;;;;;;17.00;16.00;;;;;11.76;74.11;101759.78;5060258;28;45409;-79
2021/09/23 02:48:49;;;;;;;;;20.33;19.33;;;;;11.80;73.96;101768.31;5060246;28;45295;-79
2021/09/23 02:51:14;;;;;;;;;20.33;18.33;;;;;11.79;73.87;101756.00;5060252;28;46167;-79
2021/09/23 02:53:40;;;;;;;;;19.33;16.33;;;;;11.75;73.76;101766.09;5060141;28;45256;-79
2021/09/23 02:56:05;;;;;;;;;18.67;18.00;;;;;11.71;73.61;101768.25;5060369;28;45159;-79
2021/09/23 02:58:31;;;;;;;;;16.33;15.33;;;;;11.69;73.83;101769.41;5060274;28;45217;-80
2021/09/23 03:00:57;;;;;;;;;18.00;18.00;;;;;11.68;73.96;101762.41;5059649;28;45339;-79
2021/09/23 03:03:22;;;;;;;;;17.00;17.00;;;;;11.67;74.07;101763.41;5060333;28;45180;-79
2021/09/23 03:05:48;;;;;;;;;19.00;17.67;;;;;11.63;74.33;101765.53;5060311;28;45157;-79
2021/09/23 03:08:14;;;;;;;;;22.33;20.67;;;;;11.63;74.70;101760.22;5059974;28;45181;-79
2021/09/23 03:10:39;;;;;;;;;20.67;20.00;;;;;11.58;74.69;101749.19;5060247;28;45351;-79
2021/09/23 03:13:05;;;;;;;;;21.00;19.33;;;;;11.56;74.69;101744.03;5060108;28;45252;-80
2021/09/23 03:15:32;;;;;;;;;21.33;19.33;;;;;11.60;74.65;101755.19;5059953;28;45375;-79
2021/09/23 03:17:57;;;;;;;;;19.00;19.00;;;;;11.60;74.47;101758.69;5059733;28;45338;-79
2021/09/23 03:20:24;;;;;;;;;23.67;22.00;;;;;11.63;74.40;101757.53;5058369;28;45609;-79
2021/09/23 03:22:52;;;;;;;;;22.00;21.67;;;;;11.60;74.57;101756.03;5059945;28;45305;-79
2021/09/23 03:25:18;;;;;;;;;24.33;22.33;;;;;11.61;74.39;101754.19;5060113;28;45247;-79
2021/09/23 03:27:44;;;;;;;;;21.00;20.33;;;;;11.60;74.61;101758.69;5059797;28;45287;-79
2021/09/23 03:30:10;;;;;;;;;23.00;21.33;;;;;11.59;74.48;101750.88;5058387;28;45255;-79
2021/09/23 03:32:36;;;;;;;;;19.33;18.33;;;;;11.57;74.67;101748.38;5059541;28;45322;-79
2021/09/23 03:35:01;;;;;;;;;22.67;22.67;;;;;11.58;74.72;101749.19;5059825;28;45310;-79
2021/09/23 03:37:27;;;;;;;;;24.67;24.33;;;;;11.59;74.60;101751.69;5059540;28;45366;-79
2021/09/23 03:39:53;;;;;;;;;19.33;18.33;;;;;11.61;74.80;101752.38;5059665;28;45338;-79
2021/09/23 03:42:18;;;;;;;;;17.00;17.00;;;;;11.54;74.48;101730.03;5059132;28;45342;-79
2021/09/23 03:44:45;;;;;;;;;19.33;18.67;;;;;11.55;74.73;101736.19;5059744;28;45351;-79
2021/09/23 03:47:10;;;;;;;;;18.33;18.33;;;;;11.55;74.34;101733.53;5059219;28;45254;-79
2021/09/23 03:49:36;;;;;;;;;24.00;21.33;;;;;11.56;74.68;101737.88;5059335;28;45339;-79
2021/09/23 03:52:02;;;;;;;;;18.67;18.67;;;;;11.46;74.31;101722.81;5059414;28;45342;-79
2021/09/23 03:54:27;;;;;;;;;20.33;18.67;;;;;11.48;74.70;101725.34;5059617;28;45272;-79
2021/09/23 03:56:53;;;;;;;;;19.33;19.33;;;;;11.46;74.77;101717.50;5059266;28;45224;-79
2021/09/23 03:59:18;;;;;;;;;21.33;18.67;;;;;11.44;74.77;101713.31;5059357;28;45303;-79
2021/09/23 04:01:46;;;;;;;;;22.00;21.00;;;;;11.48;74.57;101723.50;5059200;28;45232;-79
2021/09/23 04:04:12;;;;;;;;;19.00;17.67;;;;;11.48;74.26;101722.66;5059612;28;45374;-79
2021/09/23 04:06:42;;;;;;;;;19.00;19.00;;;;;11.45;74.65;101715.00;5059140;28;45349;-79
2021/09/23 04:09:09;;;;;;;;;20.00;20.00;;;;;11.43;74.39;101725.78;5059216;28;45222;-79
2021/09/23 04:11:35;;;;;;;;;21.00;17.67;;;;;11.43;74.41;101723.13;5058998;28;45176;-79
2021/09/23 04:14:01;;;;;;;;;18.67;18.67;;;;;11.41;74.41;101733.13;5059309;28;45361;-79
2021/09/23 04:16:26;;;;;;;;;20.67;20.67;;;;;11.36;74.45;101741.56;5059048;28;45315;-79
2021/09/23 04:18:52;;;;;;;;;19.33;19.00;;;;;11.35;74.43;101747.03;5059243;28;46207;-79
2021/09/23 04:21:17;;;;;;;;;20.00;20.00;;;;;11.30;74.48;101736.00;5059081;28;45348;-79
2021/09/23 04:23:43;;;;;;;;;23.67;21.00;;;;;11.25;74.48;101733.81;5059352;28;45308;-79
2021/09/23 04:26:08;;;;;;;;;18.67;18.67;;;;;11.21;74.66;101735.13;5059188;28;45338;-79
2021/09/23 04:28:34;;;;;;;;;19.67;18.67;;;;;11.23;74.49;101736.63;5058716;28;46081;-78
2021/09/23 04:31:00;;;;;;;;;27.00;26.00;;;;;11.23;74.27;101749.94;5072981;28;45285;-78
2021/09/23 04:33:25;;;;;;;;;21.00;20.33;;;;;11.23;74.38;101752.59;5079536;28;45218;-78
2021/09/23 04:35:51;;;;;;;;;22.33;21.33;;;;;11.21;74.15;101749.25;5079159;27;45246;-78
2021/09/23 04:38:18;;;;;;;;;19.00;19.00;;;;;11.14;74.26;101739.38;5079164;28;45211;-78
2021/09/23 04:40:45;;;;;;;;;23.00;19.00;;;;;11.14;74.24;101747.38;5079179;28;45204;-78
2021/09/23 04:43:11;;;;;;;;;18.00;17.33;;;;;11.11;74.45;101745.84;5078731;28;45506;-78
2021/09/23 04:45:36;;;;;;;;;20.00;19.00;;;;;11.07;74.56;101742.66;5062166;28;45514;-78
2021/09/23 04:48:03;;;;;;;;;24.33;23.67;;;;;11.06;74.52;101738.31;5062031;28;45310;-78
2021/09/23 04:50:28;;;;;;;;;30.00;27.00;;;;;11.05;74.73;101735.81;5062406;28;45349;-78
2021/09/23 04:52:54;;;;;;;;;27.00;27.00;;;;;11.03;74.53;101732.47;5062127;28;45551;-78
2021/09/23 04:55:19;;;;;;;;;28.00;27.00;;;;;11.06;74.30;101734.81;5062227;28;45370;-78
2021/09/23 04:57:45;;;;;;;;;26.00;26.00;;;;;11.07;74.64;101733.81;5061513;28;45433;-78
2021/09/23 05:00:11;;;;;;;;;27.00;27.00;;;;;11.08;74.46;101738.19;5062206;28;45276;-78
2021/09/23 05:02:36;;;;;;;;;33.33;30.00;;;;;11.07;74.64;101740.00;5062140;28;45220;-79
2021/09/23 05:05:02;;;;;;;;;26.67;24.67;;;;;11.03;74.42;101737.78;5062030;28;45217;-79
2021/09/23 05:07:28;;;;;;;;;30.00;25.33;;;;;10.99;74.71;101745.25;5061878;28;45255;-79
2021/09/23 05:09:53;;;;;;;;;24.33;24.00;;;;;10.96;74.57;101749.03;5062080;28;45298;-78
2021/09/23 05:12:19;;;;;;;;;23.67;23.67;;;;;10.96;74.78;101749.03;5061918;28;45165;-79
2021/09/23 05:14:45;;;;;;;;;27.33;26.00;;;;;10.97;74.93;101758.69;5062024;28;45207;-78
2021/09/23 05:17:10;;;;;;;;;28.33;28.00;;;;;10.94;74.85;101755.50;5061546;28;45490;-78
2021/09/23 05:19:36;;;;;;;;;27.50;24.50;;;;;10.98;74.50;101763.03;5062006;28;45315;-78
2021/09/23 05:22:02;;;;;;;;;28.33;26.00;;;;;10.97;74.42;101764.03;5061680;28;45370;-78
2021/09/23 05:24:27;;;;;;;;;24.67;24.67;;;;;10.89;74.43;101771.91;5061838;28;45319;-77
2021/09/23 05:26:53;;;;;;;;;26.67;26.67;;;;;10.87;75.11;101763.25;5061005;28;45362;-79
2021/09/23 05:29:19;;;;;;;;;24.00;21.67;;;;;10.85;75.16;101773.19;5060746;28;45393;-78
2021/09/23 05:31:44;;;;;;;;;29.00;24.67;;;;;10.86;74.79;101780.19;5081608;28;45319;-78
2021/09/23 05:34:10;;;;;;;;;28.00;27.67;;;;;10.84;74.74;101774.19;5080088;28;45808;-79
2021/09/23 05:36:36;;;;;;;;;33.00;30.67;;;;;10.84;75.03;101777.66;5081343;28;46054;-79
2021/09/23 05:39:03;;;;;;;;;33.67;31.33;;;;;10.83;74.94;101770.69;5081996;27;45494;-78
2021/09/23 05:41:30;;;;;;;;;39.75;35.25;;;;;10.88;74.98;101766.72;5081803;27;45313;-78
2021/09/23 05:43:55;;;;;;;;;40.75;32.25;;;;;10.89;74.70;101781.72;5064240;28;45501;-78
2021/09/23 05:46:21;;;;;;;;;39.75;33.50;;;;;10.91;74.85;101787.72;5060901;28;45364;-78
2021/09/23 05:48:47;;;;;;;;;36.00;32.33;;;;;10.88;75.05;101780.88;5061511;28;45371;-78
2021/09/23 05:51:14;;;;;;;;;33.67;28.67;;;;;10.85;75.02;101787.34;5060093;28;45374;-78
2021/09/23 05:53:39;;;;;;;;;38.25;33.75;;;;;10.82;75.14;101782.31;5060352;28;45327;-77
2021/09/23 05:56:05;;;;;;;;;34.67;30.67;;;;;10.80;75.07;101781.63;5061117;28;45390;-78
2021/09/23 05:58:31;;;;;;;;;33.67;30.00;;;;;10.82;75.37;101786.78;5061096;28;45303;-78
2021/09/23 06:00:56;;;;;;;;;32.67;30.00;;;;;10.84;75.18;101795.47;5060190;28;45302;-78
2021/09/23 06:03:22;;;;;;;;;26.00;25.67;;;;;10.83;75.22;101788.47;5060443;28;45354;-78
2021/09/23 06:05:47;;;;;;;;;31.67;29.67;;;;;10.85;75.15;101791.81;5060885;28;45295;-78
2021/09/23 06:08:15;;;;;;;;;28.33;26.00;;;;;10.83;75.35;101788.47;5060908;28;45244;-78
2021/09/23 06:10:41;;;;;;;;;28.67;25.67;;;;;10.86;75.25;101799.66;5061872;28;45363;-77
2021/09/23 06:13:07;;;;;;;;;30.00;29.33;;;;;10.91;75.23;101795.69;5060618;28;45251;-78
2021/09/23 06:15:33;;;;;;;;;28.00;25.67;;;;;10.92;75.53;101797.38;5060797;28;45387;-78
2021/09/23 06:17:59;;;;;;;;;26.00;25.00;;;;;10.93;75.51;101797.19;5060766;28;45339;-78
2021/09/23 06:20:24;;;;;;;;;27.00;27.00;;;;;10.95;75.57;101805.03;5061169;28;45311;-78
2021/09/23 06:22:51;;;;;;;;;28.33;27.67;;;;;10.97;75.25;101803.06;5062521;28;45326;-78
2021/09/23 06:25:18;;;;;;;;;26.00;25.00;;;;;10.98;75.50;101799.41;5062883;28;45403;-78
2021/09/23 06:27:44;;;;;;;;;32.00;27.67;;;;;10.99;75.51;101796.59;5063510;28;44704;-78
2021/09/23 06:30:12;;;;;;;;;28.33;27.00;;;;;10.99;75.46;101804.59;5069919;28;45339;-78
2021/09/23 06:32:38;;;;;;;;;24.33;23.00;;;;;11.00;75.84;101792.13;5081734;28;45484;-78
2021/09/23 06:35:04;;;;;;;;;23.00;21.33;;;;;11.08;75.59;101804.69;5066695;28;45501;-78
2021/09/23 06:37:30;;;;;;;;;26.67;22.67;;;;;11.10;75.86;101806.19;5060949;28;45389;-79
2021/09/23 06:39:55;;;;;;;;;25.67;25.00;;;;;11.13;75.91;101805.06;5060899;28;45251;-79
2021/09/23 06:42:21;;;;;;;;;26.67;25.67;;;;;11.18;75.99;101815.25;5059951;28;45271;-80
2021/09/23 06:44:47;;;;;;;;;27.33;24.67;;;;;11.19;75.98;101815.09;5071201;28;46122;-80
2021/09/23 06:47:13;;;;;;;;;30.67;28.00;;;;;11.24;75.99;101809.31;5078000;28;45322;-81
2021/09/23 06:49:39;;;;;;;;;28.33;26.33;;;;;11.28;76.09;101812.53;5072072;28;45282;-80
2021/09/23 06:52:05;;;;;;;;;30.67;28.67;;;;;11.33;76.15;101810.22;5064599;28;47370;-80
2021/09/23 06:54:30;;;;;;;;;32.00;28.33;;;;;11.37;76.03;101814.25;5058732;28;48026;-79
2021/09/23 06:56:56;;;;;;;;;25.67;24.00;;;;;11.41;75.88;101815.63;5060156;28;45291;-80
2021/09/23 06:59:21;;;;;;;;;31.33;29.67;;;;;11.45;76.03;101813.47;5062035;28;45304;-79
2021/09/23 07:01:48;;;;;;;;;33.67;31.33;;;;;11.50;76.17;101805.88;5060466;28;45434;-80
2021/09/23 07:04:14;;;;;;;;;36.50;32.00;;;;;11.60;76.42;101817.28;5060447;28;46331;-80
2021/09/23 07:06:40;;;;;;;;;32.67;31.67;;;;;11.62;76.22;101815.28;5062930;28;45363;-79
2021/09/23 07:09:07;;;;;;;;;34.33;31.33;;;;;11.67;76.02;101814.81;5067305;28;45298;-80
2021/09/23 07:11:34;;;;;;;;;38.00;30.67;;;;;11.74;76.07;101815.06;5071294;28;44851;-79
2021/09/23 07:14:00;;;;;;;;;38.00;33.67;;;;;11.78;76.54;101810.22;5072450;28;45157;-79
2021/09/23 07:16:26;;;;;;;;;39.25;33.25;;;;;11.83;76.36;101810.63;5073643;28;45498;-78
2021/09/23 07:18:51;;;;;;;;;35.67;30.33;;;;;11.90;76.13;101816.13;5071506;28;44779;-81
2021/09/23 07:21:17;;;;;;;;;42.25;35.50;;;;;11.97;76.52;101820.69;5063218;28;45457;-79
2021/09/23 07:23:43;;;;;;;;;49.25;38.25;;;;;12.02;76.25;101819.38;5062263;28;45476;-78
2021/09/23 07:26:08;;;;;;;;;43.75;37.25;;;;;12.06;76.26;101818.09;5062264;28;45376;-78
2021/09/23 07:28:34;;;;;;;;;43.00;36.00;;;;;12.07;76.42;101812.63;5063829;28;45343;-81
2021/09/23 07:31:01;;;;;;;;;43.75;37.00;;;;;12.15;76.41;101817.16;5062088;28;45455;-80
2021/09/23 07:33:27;;;;;;;;;42.00;36.00;;;;;12.17;76.68;101806.34;5062886;28;45221;-80
2021/09/23 07:35:54;;;;;;;;;43.00;34.75;;;;;12.21;76.41;101802.38;5059298;28;45303;-79
2021/09/23 07:38:20;;;;;;;;;45.75;37.25;;;;;12.27;76.70;101801.72;5059802;28;45330;-79
2021/09/23 07:40:46;;;;;;;;;43.50;34.00;;;;;12.31;76.45;101802.25;5059174;28;46149;-79
2021/09/23 07:43:12;;;;;;;;;39.50;33.50;;;;;12.33;76.53;101800.28;5059178;28;45324;-80
2021/09/23 07:45:37;;;;;;;;;39.00;34.25;;;;;12.37;76.64;101797.09;5058747;28;45964;-79
2021/09/23 07:48:03;;;;;;;;;41.75;34.75;;;;;12.40;76.83;101795.97;5058879;28;45460;-80
2021/09/23 07:50:29;;;;;;;;;38.00;32.67;;;;;12.44;76.50;101797.31;5060279;28;45632;-80
2021/09/23 07:52:54;;;;;;;;;39.25;33.50;;;;;12.55;76.50;101798.00;5061163;28;45329;-80
2021/09/23 07:55:20;;;;;;;;;35.25;32.00;;;;;12.61;76.59;101800.84;5060441;28;45350;-80
2021/09/23 07:57:45;;;;;;;;;40.75;34.00;;;;;12.68;76.17;101793.03;5059672;28;45319;-78
2021/09/23 08:00:11;;;;;;;;;42.25;36.00;;;;;12.71;76.40;101792.72;5059679;28;45499;-80
2021/09/23 08:02:37;;;;;;;;;48.50;38.75;;;;;12.76;76.40;101792.25;5059604;28;45137;-79
2021/09/23 08:05:03;;;;;;;;;49.50;40.25;;;;;12.82;76.58;101786.25;5059255;28;45275;-79
2021/09/23 08:07:28;;;;;;;;;47.50;40.00;;;;;12.85;76.54;101790.41;5059174;28;45243;-80
2021/09/23 08:09:54;;;;;;;;;53.00;43.50;;;;;12.86;76.75;101781.41;5059216;28;45532;-80
2021/09/23 08:12:19;;;;;;;;;53.00;42.75;;;;;12.93;76.64;101786.94;5056539;28;45310;-79
2021/09/23 08:14:45;;;;;;;;;51.25;42.25;;;;;12.99;77.04;101791.63;5064496;28;45490;-79
2021/09/23 08:17:11;;;;;;;;;56.25;43.25;;;;;13.06;76.90;101795.31;5058899;28;45411;-79
2021/09/23 08:19:36;;;;;;;;;53.50;44.00;;;;;13.13;76.77;101795.47;5062308;28;45460;-78
2021/09/23 08:22:05;;;;;;;;;49.25;41.50;;;;;13.21;76.28;101798.16;5060512;28;46434;-79
2021/09/23 08:24:31;;;;;;;;;52.75;43.00;;;;;13.26;76.16;101785.13;5062774;28;45256;-79
2021/09/23 08:26:57;;;;;;;;;53.75;43.00;;;;;13.33;76.82;101784.47;5062685;28;45290;-78
2021/09/23 08:29:23;;;;;;;;;55.50;45.00;;;;;13.38;76.48;101790.16;5063473;28;45305;-81
2021/09/23 08:31:49;;;;;;;;;54.00;44.00;;;;;13.40;76.30;101777.44;5064127;28;46078;-81
2021/09/23 08:34:16;;;;;;;;;53.50;44.00;;;;;13.43;76.49;101773.59;5063591;28;45429;-80
2021/09/23 08:36:42;;;;;;;;;59.25;46.75;;;;;13.45;76.14;101767.09;5061211;28;45357;-82
2021/09/23 08:39:08;;;;;;;;;57.25;46.50;;;;;13.55;76.17;101782.97;5060636;28;45327;-81
2021/09/23 08:41:34;;;;;;;;;52.50;44.00;;;;;13.59;76.11;101786.16;5061064;28;45374;-81
2021/09/23 08:43:59;;;;;;;;;52.25;43.00;;;;;13.56;76.08;101773.13;5062110;28;45291;-80
2021/09/23 08:46:28;;;;;;;;;46.75;38.50;;;;;13.66;76.19;101779.13;5063734;28;45315;-82
2021/09/23 08:48:54;;;;;;;;;44.75;37.50;;;;;13.68;76.26;101779.78;5065892;28;45460;-83
2021/09/23 08:51:20;;;;;;;;;44.00;37.25;;;;;13.70;76.53;101777.78;5067180;28;45323;-82
2021/09/23 08:53:46;;;;;;;;;46.50;38.50;;;;;13.73;76.51;101780.13;5067216;28;45314;-81
2021/09/23 08:56:14;;;;;;;;;44.25;36.00;;;;;13.81;76.38;101786.44;5065021;28;45363;-84
2021/09/23 08:58:46;;;;;;;;;44.75;36.75;;;;;13.86;76.41;101795.63;5065233;28;45765;-84
2021/09/23 09:01:17;;;;;;;;;45.00;37.00;;;;;13.89;76.57;101778.44;5062433;28;46950;-83
2021/09/23 09:03:46;;;;;;;;;37.33;32.00;;;;;13.99;76.07;101784.41;5064514;28;45303;-82
2021/09/23 09:06:14;;;;;;;;;27.33;27.00;;;;;14.08;75.77;101785.22;5061960;28;45374;-79
2021/09/23 09:08:42;;;;;;;;;23.33;22.33;;;;;14.20;75.69;101792.84;5063115;28;45330;-79
2021/09/23 09:11:11;;;;;;;;;28.00;26.67;;;;;14.32;75.73;101793.31;5062062;28;45292;-79
2021/09/23 09:13:41;;;;;;;;;29.67;25.33;;;;;14.44;75.59;101797.28;5061732;28;45318;-80
2021/09/23 09:16:09;;;;;;;;;25.00;25.00;;;;;14.54;75.75;101788.22;5061649;28;45287;-80
2021/09/23 09:18:35;;;;;;;;;22.00;20.33;;;;;14.58;75.63;101781.50;5061051;28;45759;-81
2021/09/23 09:21:04;;;;;;;;;21.33;19.67;;;;;14.62;75.64;101780.97;5061098;28;46099;-81
2021/09/23 09:23:46;;;;;;;;;23.00;23.00;;;;;14.70;75.80;101787.28;5061075;28;45353;-81
2021/09/23 09:26:25;;;;;;;;;22.00;22.00;;;;;14.79;74.66;101782.75;5061663;28;45369;-80
2021/09/23 09:28:53;;;;;;;;;21.33;21.33;;;;;14.92;74.79;101787.50;5060461;28;45218;-79
2021/09/23 09:31:18;;;;;;;;;18.00;18.00;;;;;15.03;73.59;101781.75;5078213;28;46189;-80
2021/09/23 09:33:47;;;;;;;;;19.33;19.33;;;;;15.19;74.00;101786.13;5081904;28;45264;-81
2021/09/23 09:36:32;;;;;;;;;22.67;20.00;;;;;15.30;73.94;101784.88;5081818;28;45328;-79
2021/09/23 09:39:02;;;;;;;;;14.00;14.00;;;;;15.39;72.09;101777.63;5082360;28;45495;-81
2021/09/23 09:41:34;;;;;;;;;21.00;17.33;;;;;15.62;70.94;101785.59;5082086;28;46347;-80
2021/09/23 09:44:00;;;;;;;;;18.33;18.33;;;;;15.81;70.98;101785.25;5080550;28;45401;-77
2021/09/23 09:46:29;;;;;;;;;19.00;17.33;;;;;15.96;70.24;101778.09;5081808;28;45317;-78
2021/09/23 09:48:55;;;;;;;;;12.67;12.67;;;;;16.12;70.00;101770.84;5081880;28;45410;-78
2021/09/23 09:51:37;;;;;;;;;17.00;17.00;;;;;16.27;69.62;101760.94;5081576;28;45758;-78
2021/09/23 09:54:04;;;;;;;;;14.67;14.67;;;;;16.42;69.62;101768.13;5080163;28;45640;-78
2021/09/23 09:56:29;;;;;;;;;16.33;14.00;;;;;16.52;68.65;101757.94;5080530;28;45306;-79
2021/09/23 09:59:13;;;;;;;;;19.00;19.00;;;;;16.68;67.50;101758.72;5080801;28;46005;-81
2021/09/23 10:01:47;;;;;;;;;23.00;20.33;;;;;16.86;67.04;101746.72;5079393;28;47723;-79
2021/09/23 10:04:15;;;;;;;;;18.67;18.67;;;;;17.09;66.64;101756.47;5079971;28;45599;-80
2021/09/23 10:06:42;;;;;;;;;18.67;18.67;;;;;17.32;65.91;101763.44;5080018;28;45331;-77
2021/09/23 10:09:11;;;;;;;;;21.33;21.33;;;;;17.50;64.93;101769.19;5061201;27;45528;-82
2021/09/23 10:11:46;;;;;;;;;24.00;21.67;;;;;17.69;65.17;101763.31;5061010;28;45201;-77
2021/09/23 10:14:13;;;;;;;;;21.67;21.33;;;;;17.85;64.35;101757.63;5061051;28;45303;-78
2021/09/23 10:16:40;;;;;;;;;23.00;21.67;;;;;18.07;64.25;101759.41;5060956;28;45219;-78
2021/09/23 10:19:06;;;;;;;;;21.33;20.33;;;;;18.22;63.24;101754.72;5061112;28;45314;-77
2021/09/23 10:21:33;;;;;;;;;18.67;17.67;;;;;18.36;62.86;101760.16;5060521;28;46014;-83
2021/09/23 10:24:00;;;;;;;;;20.00;19.00;;;;;18.44;62.99;101748.38;5061178;28;45484;-82
2021/09/23 10:26:29;;;;;;;;;16.00;16.00;;;;;18.57;61.97;101756.50;5059608;28;45434;-83
2021/09/23 10:28:57;;;;;;;;;18.00;17.00;;;;;18.75;61.49;101760.47;5060682;28;45338;-82
2021/09/23 10:31:36;;;;;;;;;14.00;14.00;;;;;18.85;60.77;101750.13;5077595;28;45294;-81
2021/09/23 10:34:04;;;;;;;;;15.67;15.33;;;;;19.02;60.24;101753.25;5053692;28;45398;-82
2021/09/23 10:36:32;;;;;;;;;12.00;11.33;;;;;19.11;60.55;101753.91;5057515;28;45308;-80
2021/09/23 10:39:00;;;;;;;;;13.33;13.00;;;;;19.15;59.80;101752.44;5059512;28;45324;-78
2021/09/23 10:41:27;;;;;;;;;12.00;11.33;;;;;19.11;59.53;101745.81;5059829;28;46198;-78
2021/09/23 10:43:55;;;;;;;;;17.00;17.00;;;;;19.08;59.38;101738.16;5058507;28;45670;-81
2021/09/23 10:46:25;;;;;;;;;12.00;12.00;;;;;19.15;59.35;101730.06;5060104;28;45385;-77
2021/09/23 10:48:52;;;;;;;;;16.33;16.33;;;;;19.22;59.54;101732.75;5060425;28;45252;-78
2021/09/23 10:51:18;;;;;;;;;16.00;15.33;;;;;19.25;59.60;101722.38;5059928;28;46308;-77
2021/09/23 10:53:58;;;;;;;;;15.00;13.33;;;;;19.33;59.38;101717.84;5060211;28;45289;-77
2021/09/23 10:56:26;;;;;;;;;13.00;13.00;;;;;19.41;59.51;101723.81;5060247;28;45313;-78
2021/09/23 10:58:52;;;;;;;;;16.33;16.33;;;;;19.48;59.42;101718.41;5059799;28;45427;-76
2021/09/23 11:01:24;;;;;;;;;18.00;15.00;;;;;19.53;58.92;101715.09;5059597;28;45621;-78
2021/09/23 11:03:53;;;;;;;;;17.67;17.00;;;;;19.53;59.94;101713.22;5060201;28;45429;-76
2021/09/23 11:06:19;;;;;;;;;18.00;16.67;;;;;19.50;59.47;101702.88;5059952;28;45207;-78
2021/09/23 11:08:47;;;;;;;;;16.00;15.00;;;;;19.53;59.80;101697.06;5059987;28;45206;-84